sensor_id;sensor_type;location;lat;lon;timestamp;P1;durP1;ratioP1;P2;durP2;ratioP2
31674;SDS011;18276;45.520;11.018;2022-10-31T00:01:24;14.48;;;3.80;;
31674;SDS011;18276;45.520;11.018;2022-10-31T00:03:59;15.98;;;3.75;;
31674;SDS011;18276;45.520;11.018;2022-10-31T00:06:27;14.43;;;3.80;;
31674;SDS011;18276;45.520;11.018;2022-10-31T00:08:55;20.15;;;3.78;;
31674;SDS011;18276;45.520;11.018;2022-10-31T00:11:24;12.65;;;3.97;;
31674;SDS011;18276;45.520;11.018;2022-10-31T00:13:52;15.75;;;3.63;;
31674;SDS011;18276;45.520;11.018;2022-10-31T00:16:20;13.57;;;4.38;;
31674;SDS011;18276;45.520;11.018;2022-10-31T00:18:49;10.43;;;3.65;;
31674;SDS011;18276;45.520;11.018;2022-10-31T00:21:21;11.40;;;4.65;;
31674;SDS011;18276;45.520;11.018;2022-10-31T00:23:48;12.27;;;3.75;;
31674;SDS011;18276;45.520;11.018;2022-10-31T00:26:15;15.48;;;3.92;;
31674;SDS011;18276;45.520;11.018;2022-10-31T00:28:42;18.77;;;4.65;;
31674;SDS011;18276;45.520;11.018;2022-10-31T00:31:10;13.70;;;3.65;;
31674;SDS011;18276;45.520;11.018;2022-10-31T00:33:38;12.55;;;4.38;;
31674;SDS011;18276;45.520;11.018;2022-10-31T00:36:07;13.50;;;4.10;;
31674;SDS011;18276;45.520;11.018;2022-10-31T00:38:38;11.10;;;3.55;;
31674;SDS011;18276;45.520;11.018;2022-10-31T00:41:05;16.38;;;4.15;;
31674;SDS011;18276;45.520;11.018;2022-10-31T00:43:34;15.63;;;3.42;;
31674;SDS011;18276;45.520;11.018;2022-10-31T00:46:01;16.52;;;3.60;;
31674;SDS011;18276;45.520;11.018;2022-10-31T00:48:28;15.70;;;4.28;;
31674;SDS011;18276;45.520;11.018;2022-10-31T00:50:56;21.02;;;4.68;;
31674;SDS011;18276;45.520;11.018;2022-10-31T00:53:23;17.60;;;4.85;;
31674;SDS011;18276;45.520;11.018;2022-10-31T00:55:51;17.40;;;5.57;;
31674;SDS011;18276;45.520;11.018;2022-10-31T00:58:18;18.83;;;4.18;;
31674;SDS011;18276;45.520;11.018;2022-10-31T01:00:49;15.90;;;5.20;;
31674;SDS011;18276;45.520;11.018;2022-10-31T01:03:23;10.23;;;3.97;;
31674;SDS011;18276;45.520;11.018;2022-10-31T01:05:55;13.05;;;4.10;;
31674;SDS011;18276;45.520;11.018;2022-10-31T01:08:31;14.60;;;4.78;;
31674;SDS011;18276;45.520;11.018;2022-10-31T01:11:06;15.73;;;4.15;;
31674;SDS011;18276;45.520;11.018;2022-10-31T01:13:39;13.70;;;4.15;;
31674;SDS011;18276;45.520;11.018;2022-10-31T01:16:07;15.73;;;4.45;;
31674;SDS011;18276;45.520;11.018;2022-10-31T01:18:36;17.30;;;4.32;;
31674;SDS011;18276;45.520;11.018;2022-10-31T01:21:08;14.10;;;4.75;;
31674;SDS011;18276;45.520;11.018;2022-10-31T01:23:41;18.35;;;4.78;;
31674;SDS011;18276;45.520;11.018;2022-10-31T01:26:13;15.15;;;4.85;;
31674;SDS011;18276;45.520;11.018;2022-10-31T01:28:50;13.27;;;3.75;;
31674;SDS011;18276;45.520;11.018;2022-10-31T01:31:22;20.95;;;4.63;;
31674;SDS011;18276;45.520;11.018;2022-10-31T01:33:50;19.38;;;4.38;;
31674;SDS011;18276;45.520;11.018;2022-10-31T01:36:22;19.88;;;4.07;;
31674;SDS011;18276;45.520;11.018;2022-10-31T01:38:53;13.38;;;4.25;;
31674;SDS011;18276;45.520;11.018;2022-10-31T01:41:24;17.55;;;3.88;;
31674;SDS011;18276;45.520;11.018;2022-10-31T01:43:55;18.63;;;4.35;;
31674;SDS011;18276;45.520;11.018;2022-10-31T01:46:31;13.25;;;4.38;;
31674;SDS011;18276;45.520;11.018;2022-10-31T01:49:02;15.48;;;4.80;;
31674;SDS011;18276;45.520;11.018;2022-10-31T01:51:35;10.93;;;4.72;;
31674;SDS011;18276;45.520;11.018;2022-10-31T01:54:11;16.25;;;4.55;;
31674;SDS011;18276;45.520;11.018;2022-10-31T01:56:40;14.75;;;4.40;;
31674;SDS011;18276;45.520;11.018;2022-10-31T01:59:12;15.88;;;3.92;;
31674;SDS011;18276;45.520;11.018;2022-10-31T02:01:42;15.18;;;3.95;;
31674;SDS011;18276;45.520;11.018;2022-10-31T02:04:10;15.45;;;3.90;;
31674;SDS011;18276;45.520;11.018;2022-10-31T02:06:38;20.15;;;3.63;;
31674;SDS011;18276;45.520;11.018;2022-10-31T02:09:13;15.23;;;3.92;;
31674;SDS011;18276;45.520;11.018;2022-10-31T02:11:41;16.10;;;4.15;;
31674;SDS011;18276;45.520;11.018;2022-10-31T02:14:10;13.68;;;3.83;;
31674;SDS011;18276;45.520;11.018;2022-10-31T02:16:37;12.43;;;4.03;;
31674;SDS011;18276;45.520;11.018;2022-10-31T02:19:05;12.75;;;3.92;;
31674;SDS011;18276;45.520;11.018;2022-10-31T02:21:42;21.92;;;3.85;;
31674;SDS011;18276;45.520;11.018;2022-10-31T02:31:15;11.48;;;3.65;;
31674;SDS011;18276;45.520;11.018;2022-10-31T02:33:44;11.98;;;4.03;;
31674;SDS011;18276;45.520;11.018;2022-10-31T02:36:25;15.70;;;4.38;;
31674;SDS011;18276;45.520;11.018;2022-10-31T02:39:00;14.40;;;3.83;;
31674;SDS011;18276;45.520;11.018;2022-10-31T02:47:06;15.50;;;3.95;;
31674;SDS011;18276;45.520;11.018;2022-10-31T02:52:30;11.85;;;3.00;;
31674;SDS011;18276;45.520;11.018;2022-10-31T02:58:02;11.15;;;3.85;;
31674;SDS011;18276;45.520;11.018;2022-10-31T03:00:38;17.35;;;3.50;;
31674;SDS011;18276;45.520;11.018;2022-10-31T03:04:15;18.10;;;3.92;;
31674;SDS011;18276;45.520;11.018;2022-10-31T03:09:33;18.92;;;3.97;;
31674;SDS011;18276;45.520;11.018;2022-10-31T03:12:07;16.33;;;4.88;;
31674;SDS011;18276;45.520;11.018;2022-10-31T03:17:23;19.77;;;4.57;;
31674;SDS011;18276;45.520;11.018;2022-10-31T03:20:11;18.10;;;4.30;;
31674;SDS011;18276;45.520;11.018;2022-10-31T03:22:38;22.98;;;4.30;;
31674;SDS011;18276;45.520;11.018;2022-10-31T03:25:08;12.65;;;4.43;;
31674;SDS011;18276;45.520;11.018;2022-10-31T03:27:37;16.52;;;4.53;;
31674;SDS011;18276;45.520;11.018;2022-10-31T03:30:06;15.00;;;4.75;;
31674;SDS011;18276;45.520;11.018;2022-10-31T03:32:51;17.10;;;4.90;;
31674;SDS011;18276;45.520;11.018;2022-10-31T03:35:22;16.90;;;4.07;;
31674;SDS011;18276;45.520;11.018;2022-10-31T03:37:52;14.50;;;3.80;;
31674;SDS011;18276;45.520;11.018;2022-10-31T03:40:21;13.73;;;4.55;;
31674;SDS011;18276;45.520;11.018;2022-10-31T03:43:00;16.60;;;4.63;;
31674;SDS011;18276;45.520;11.018;2022-10-31T03:45:35;14.60;;;4.32;;
31674;SDS011;18276;45.520;11.018;2022-10-31T03:48:08;17.52;;;4.28;;
31674;SDS011;18276;45.520;11.018;2022-10-31T03:50:38;14.48;;;5.03;;
31674;SDS011;18276;45.520;11.018;2022-10-31T03:53:40;18.92;;;3.45;;
31674;SDS011;18276;45.520;11.018;2022-10-31T03:56:21;11.93;;;3.55;;
31674;SDS011;18276;45.520;11.018;2022-10-31T03:59:02;17.23;;;4.45;;
31674;SDS011;18276;45.520;11.018;2022-10-31T04:01:34;11.15;;;3.65;;
31674;SDS011;18276;45.520;11.018;2022-10-31T04:04:06;11.35;;;3.95;;
31674;SDS011;18276;45.520;11.018;2022-10-31T04:06:34;10.80;;;2.92;;
31674;SDS011;18276;45.520;11.018;2022-10-31T04:09:04;10.50;;;3.10;;
31674;SDS011;18276;45.520;11.018;2022-10-31T04:11:38;9.80;;;3.03;;
31674;SDS011;18276;45.520;11.018;2022-10-31T04:14:29;12.85;;;3.55;;
31674;SDS011;18276;45.520;11.018;2022-10-31T04:16:58;14.82;;;3.58;;
31674;SDS011;18276;45.520;11.018;2022-10-31T04:19:33;23.77;;;4.50;;
31674;SDS011;18276;45.520;11.018;2022-10-31T04:22:00;11.82;;;3.47;;
31674;SDS011;18276;45.520;11.018;2022-10-31T04:24:28;16.70;;;2.97;;
31674;SDS011;18276;45.520;11.018;2022-10-31T04:26:55;13.30;;;3.15;;
31674;SDS011;18276;45.520;11.018;2022-10-31T04:29:23;9.10;;;2.88;;
31674;SDS011;18276;45.520;11.018;2022-10-31T04:31:50;9.98;;;3.35;;
31674;SDS011;18276;45.520;11.018;2022-10-31T04:34:18;10.52;;;3.05;;
31674;SDS011;18276;45.520;11.018;2022-10-31T04:36:45;18.27;;;3.70;;
31674;SDS011;18276;45.520;11.018;2022-10-31T04:39:14;15.23;;;4.38;;
31674;SDS011;18276;45.520;11.018;2022-10-31T04:41:49;11.05;;;2.83;;
31674;SDS011;18276;45.520;11.018;2022-10-31T04:44:17;13.75;;;2.90;;
31674;SDS011;18276;45.520;11.018;2022-10-31T04:46:48;13.90;;;3.33;;
31674;SDS011;18276;45.520;11.018;2022-10-31T04:49:15;14.23;;;3.30;;
31674;SDS011;18276;45.520;11.018;2022-10-31T04:51:43;10.68;;;3.42;;
31674;SDS011;18276;45.520;11.018;2022-10-31T04:54:12;11.20;;;3.08;;
31674;SDS011;18276;45.520;11.018;2022-10-31T04:57:05;13.52;;;2.55;;
31674;SDS011;18276;45.520;11.018;2022-10-31T04:59:32;13.18;;;3.05;;
31674;SDS011;18276;45.520;11.018;2022-10-31T05:01:59;15.52;;;3.90;;
31674;SDS011;18276;45.520;11.018;2022-10-31T05:04:40;12.18;;;2.95;;
31674;SDS011;18276;45.520;11.018;2022-10-31T05:07:07;15.35;;;3.35;;
31674;SDS011;18276;45.520;11.018;2022-10-31T05:09:34;8.20;;;3.05;;
31674;SDS011;18276;45.520;11.018;2022-10-31T05:12:01;10.55;;;2.78;;
31674;SDS011;18276;45.520;11.018;2022-10-31T05:14:47;8.30;;;2.60;;
31674;SDS011;18276;45.520;11.018;2022-10-31T05:17:32;11.25;;;2.80;;
31674;SDS011;18276;45.520;11.018;2022-10-31T05:20:26;13.57;;;2.75;;
31674;SDS011;18276;45.520;11.018;2022-10-31T05:23:24;12.40;;;3.10;;
31674;SDS011;18276;45.520;11.018;2022-10-31T05:25:52;11.00;;;3.13;;
31674;SDS011;18276;45.520;11.018;2022-10-31T05:28:19;10.85;;;2.70;;
31674;SDS011;18276;45.520;11.018;2022-10-31T05:30:46;11.32;;;3.00;;
31674;SDS011;18276;45.520;11.018;2022-10-31T05:33:14;12.27;;;3.67;;
31674;SDS011;18276;45.520;11.018;2022-10-31T05:36:00;10.32;;;3.15;;
31674;SDS011;18276;45.520;11.018;2022-10-31T05:38:53;14.30;;;3.17;;
31674;SDS011;18276;45.520;11.018;2022-10-31T05:41:24;12.75;;;2.63;;
31674;SDS011;18276;45.520;11.018;2022-10-31T05:43:59;11.23;;;2.97;;
31674;SDS011;18276;45.520;11.018;2022-10-31T05:46:28;13.63;;;2.92;;
31674;SDS011;18276;45.520;11.018;2022-10-31T05:49:18;19.38;;;3.03;;
31674;SDS011;18276;45.520;11.018;2022-10-31T05:52:04;9.98;;;3.13;;
31674;SDS011;18276;45.520;11.018;2022-10-31T05:54:38;14.55;;;2.92;;
31674;SDS011;18276;45.520;11.018;2022-10-31T05:57:05;9.48;;;2.70;;
31674;SDS011;18276;45.520;11.018;2022-10-31T05:59:32;17.23;;;2.80;;
31674;SDS011;18276;45.520;11.018;2022-10-31T06:02:00;13.68;;;2.55;;
31674;SDS011;18276;45.520;11.018;2022-10-31T06:04:53;16.67;;;3.00;;
31674;SDS011;18276;45.520;11.018;2022-10-31T06:07:21;12.80;;;3.20;;
31674;SDS011;18276;45.520;11.018;2022-10-31T06:09:48;19.42;;;4.05;;
31674;SDS011;18276;45.520;11.018;2022-10-31T06:12:19;17.42;;;3.95;;
31674;SDS011;18276;45.520;11.018;2022-10-31T06:15:12;15.27;;;3.73;;
31674;SDS011;18276;45.520;11.018;2022-10-31T06:17:47;17.65;;;3.83;;
31674;SDS011;18276;45.520;11.018;2022-10-31T06:20:25;16.00;;;2.85;;
31674;SDS011;18276;45.520;11.018;2022-10-31T06:22:58;9.15;;;2.38;;
31674;SDS011;18276;45.520;11.018;2022-10-31T06:25:26;14.10;;;3.80;;
31674;SDS011;18276;45.520;11.018;2022-10-31T06:27:54;17.98;;;3.35;;
31674;SDS011;18276;45.520;11.018;2022-10-31T06:30:28;14.35;;;3.00;;
31674;SDS011;18276;45.520;11.018;2022-10-31T06:33:00;18.13;;;4.35;;
31674;SDS011;18276;45.520;11.018;2022-10-31T06:35:29;13.88;;;2.70;;
31674;SDS011;18276;45.520;11.018;2022-10-31T06:37:58;10.73;;;3.53;;
31674;SDS011;18276;45.520;11.018;2022-10-31T06:40:36;17.45;;;3.10;;
31674;SDS011;18276;45.520;11.018;2022-10-31T06:43:23;10.13;;;3.22;;
31674;SDS011;18276;45.520;11.018;2022-10-31T06:46:06;19.52;;;3.80;;
31674;SDS011;18276;45.520;11.018;2022-10-31T06:48:40;18.25;;;3.70;;
31674;SDS011;18276;45.520;11.018;2022-10-31T06:51:18;10.40;;;3.17;;
31674;SDS011;18276;45.520;11.018;2022-10-31T06:53:48;17.02;;;3.35;;
31674;SDS011;18276;45.520;11.018;2022-10-31T06:56:17;14.13;;;3.35;;
31674;SDS011;18276;45.520;11.018;2022-10-31T06:58:50;19.15;;;3.60;;
31674;SDS011;18276;45.520;11.018;2022-10-31T07:01:29;17.75;;;4.07;;
31674;SDS011;18276;45.520;11.018;2022-10-31T07:03:57;21.65;;;3.50;;
31674;SDS011;18276;45.520;11.018;2022-10-31T07:06:25;18.45;;;3.20;;
31674;SDS011;18276;45.520;11.018;2022-10-31T07:08:53;24.00;;;4.63;;
31674;SDS011;18276;45.520;11.018;2022-10-31T07:11:20;17.30;;;4.10;;
31674;SDS011;18276;45.520;11.018;2022-10-31T07:13:47;19.77;;;4.75;;
31674;SDS011;18276;45.520;11.018;2022-10-31T07:16:15;22.77;;;5.00;;
31674;SDS011;18276;45.520;11.018;2022-10-31T07:18:42;12.48;;;3.42;;
31674;SDS011;18276;45.520;11.018;2022-10-31T07:21:11;20.13;;;4.85;;
31674;SDS011;18276;45.520;11.018;2022-10-31T07:23:38;21.48;;;4.70;;
31674;SDS011;18276;45.520;11.018;2022-10-31T07:26:41;18.80;;;4.45;;
31674;SDS011;18276;45.520;11.018;2022-10-31T07:29:09;18.95;;;5.50;;
31674;SDS011;18276;45.520;11.018;2022-10-31T07:31:36;21.20;;;5.40;;
31674;SDS011;18276;45.520;11.018;2022-10-31T07:34:10;21.73;;;6.00;;
31674;SDS011;18276;45.520;11.018;2022-10-31T07:36:56;26.33;;;5.75;;
31674;SDS011;18276;45.520;11.018;2022-10-31T07:39:23;21.73;;;5.15;;
31674;SDS011;18276;45.520;11.018;2022-10-31T07:41:51;29.30;;;7.15;;
31674;SDS011;18276;45.520;11.018;2022-10-31T07:44:18;42.33;;;8.43;;
31674;SDS011;18276;45.520;11.018;2022-10-31T07:47:04;19.60;;;5.53;;
31674;SDS011;18276;45.520;11.018;2022-10-31T07:49:49;25.15;;;6.20;;
31674;SDS011;18276;45.520;11.018;2022-10-31T07:52:43;17.60;;;5.10;;
31674;SDS011;18276;45.520;11.018;2022-10-31T07:55:33;21.95;;;5.13;;
31674;SDS011;18276;45.520;11.018;2022-10-31T07:58:09;19.98;;;4.50;;
31674;SDS011;18276;45.520;11.018;2022-10-31T08:00:41;19.52;;;5.90;;
31674;SDS011;18276;45.520;11.018;2022-10-31T08:03:13;22.02;;;6.20;;
31674;SDS011;18276;45.520;11.018;2022-10-31T08:06:00;31.98;;;4.97;;
31674;SDS011;18276;45.520;11.018;2022-10-31T08:09:05;21.90;;;5.35;;
31674;SDS011;18276;45.520;11.018;2022-10-31T08:11:32;24.73;;;5.25;;
31674;SDS011;18276;45.520;11.018;2022-10-31T08:14:00;19.55;;;6.32;;
31674;SDS011;18276;45.520;11.018;2022-10-31T08:16:28;14.02;;;4.97;;
31674;SDS011;18276;45.520;11.018;2022-10-31T08:19:00;17.73;;;4.35;;
31674;SDS011;18276;45.520;11.018;2022-10-31T08:23:57;15.75;;;4.20;;
31674;SDS011;18276;45.520;11.018;2022-10-31T08:46:58;16.58;;;4.45;;
31674;SDS011;18276;45.520;11.018;2022-10-31T08:49:25;13.70;;;4.20;;
31674;SDS011;18276;45.520;11.018;2022-10-31T14:57:50;40.33;;;23.05;;
31674;SDS011;18276;45.520;11.018;2022-10-31T15:00:23;45.05;;;24.77;;
31674;SDS011;18276;45.520;11.018;2022-10-31T15:05:57;49.40;;;23.95;;
31674;SDS011;18276;45.520;11.018;2022-10-31T15:08:29;49.08;;;23.00;;
31674;SDS011;18276;45.520;11.018;2022-10-31T15:11:02;46.28;;;24.63;;
31674;SDS011;18276;45.520;11.018;2022-10-31T15:14:01;41.95;;;23.48;;
31674;SDS011;18276;45.520;11.018;2022-10-31T15:16:43;51.78;;;24.30;;
31674;SDS011;18276;45.520;11.018;2022-10-31T15:19:11;41.30;;;23.48;;
31674;SDS011;18276;45.520;11.018;2022-10-31T15:21:46;44.33;;;23.33;;
31674;SDS011;18276;45.520;11.018;2022-10-31T15:24:14;42.92;;;23.63;;
31674;SDS011;18276;45.520;11.018;2022-10-31T15:26:48;53.13;;;25.42;;
31674;SDS011;18276;45.520;11.018;2022-10-31T15:29:18;45.58;;;24.52;;
31674;SDS011;18276;45.520;11.018;2022-10-31T15:31:53;40.75;;;23.67;;
31674;SDS011;18276;45.520;11.018;2022-10-31T15:36:52;49.63;;;25.75;;
31674;SDS011;18276;45.520;11.018;2022-10-31T15:39:19;49.63;;;25.15;;
31674;SDS011;18276;45.520;11.018;2022-10-31T15:41:52;53.20;;;25.38;;
31674;SDS011;18276;45.520;11.018;2022-10-31T15:47:03;50.70;;;23.75;;
31674;SDS011;18276;45.520;11.018;2022-10-31T15:52:26;50.20;;;24.73;;
31674;SDS011;18276;45.520;11.018;2022-10-31T15:54:58;51.92;;;25.02;;
31674;SDS011;18276;45.520;11.018;2022-10-31T15:59:59;53.30;;;25.52;;
31674;SDS011;18276;45.520;11.018;2022-10-31T16:02:26;46.95;;;23.88;;
31674;SDS011;18276;45.520;11.018;2022-10-31T16:04:54;46.85;;;24.60;;
31674;SDS011;18276;45.520;11.018;2022-10-31T16:07:24;47.65;;;23.13;;
31674;SDS011;18276;45.520;11.018;2022-10-31T16:09:52;45.72;;;22.90;;
31674;SDS011;18276;45.520;11.018;2022-10-31T16:12:37;51.78;;;23.42;;
31674;SDS011;18276;45.520;11.018;2022-10-31T16:15:13;46.63;;;22.73;;
31674;SDS011;18276;45.520;11.018;2022-10-31T16:17:42;49.90;;;23.15;;
31674;SDS011;18276;45.520;11.018;2022-10-31T16:20:27;50.10;;;23.42;;
31674;SDS011;18276;45.520;11.018;2022-10-31T16:22:58;46.33;;;23.15;;
31674;SDS011;18276;45.520;11.018;2022-10-31T16:25:28;45.95;;;22.58;;
31674;SDS011;18276;45.520;11.018;2022-10-31T16:28:03;46.55;;;23.38;;
31674;SDS011;18276;45.520;11.018;2022-10-31T16:30:37;55.55;;;23.38;;
31674;SDS011;18276;45.520;11.018;2022-10-31T16:33:29;48.88;;;23.15;;
31674;SDS011;18276;45.520;11.018;2022-10-31T16:39:01;51.03;;;23.33;;
31674;SDS011;18276;45.520;11.018;2022-10-31T16:41:29;47.83;;;24.98;;
31674;SDS011;18276;45.520;11.018;2022-10-31T16:43:57;55.83;;;27.70;;
31674;SDS011;18276;45.520;11.018;2022-10-31T16:46:25;52.97;;;26.80;;
31674;SDS011;18276;45.520;11.018;2022-10-31T16:48:53;50.42;;;25.58;;
31674;SDS011;18276;45.520;11.018;2022-10-31T16:51:21;53.15;;;26.02;;
31674;SDS011;18276;45.520;11.018;2022-10-31T16:53:51;51.05;;;26.13;;
31674;SDS011;18276;45.520;11.018;2022-10-31T16:56:37;53.90;;;27.17;;
31674;SDS011;18276;45.520;11.018;2022-10-31T16:59:05;58.13;;;25.65;;
31674;SDS011;18276;45.520;11.018;2022-10-31T17:01:41;58.00;;;26.98;;
31674;SDS011;18276;45.520;11.018;2022-10-31T17:04:13;49.88;;;25.77;;
31674;SDS011;18276;45.520;11.018;2022-10-31T17:06:41;50.42;;;26.33;;
31674;SDS011;18276;45.520;11.018;2022-10-31T17:09:08;62.58;;;28.95;;
31674;SDS011;18276;45.520;11.018;2022-10-31T17:11:35;54.95;;;25.90;;
31674;SDS011;18276;45.520;11.018;2022-10-31T17:14:04;56.13;;;26.75;;
31674;SDS011;18276;45.520;11.018;2022-10-31T17:16:31;46.97;;;26.60;;
31674;SDS011;18276;45.520;11.018;2022-10-31T17:18:58;54.75;;;25.25;;
31674;SDS011;18276;45.520;11.018;2022-10-31T17:21:25;50.78;;;26.88;;
31674;SDS011;18276;45.520;11.018;2022-10-31T17:23:53;52.08;;;24.80;;
31674;SDS011;18276;45.520;11.018;2022-10-31T17:26:21;48.75;;;24.95;;
31674;SDS011;18276;45.520;11.018;2022-10-31T17:28:48;49.95;;;25.15;;
31674;SDS011;18276;45.520;11.018;2022-10-31T17:33:47;52.20;;;25.98;;
31674;SDS011;18276;45.520;11.018;2022-10-31T17:36:14;57.30;;;26.90;;
31674;SDS011;18276;45.520;11.018;2022-10-31T17:38:41;54.03;;;25.45;;
31674;SDS011;18276;45.520;11.018;2022-10-31T17:41:08;50.85;;;26.60;;
31674;SDS011;18276;45.520;11.018;2022-10-31T17:43:37;52.05;;;26.13;;
31674;SDS011;18276;45.520;11.018;2022-10-31T17:46:04;58.83;;;26.80;;
31674;SDS011;18276;45.520;11.018;2022-10-31T17:48:32;62.67;;;25.65;;
31674;SDS011;18276;45.520;11.018;2022-10-31T17:51:00;52.67;;;23.83;;
31674;SDS011;18276;45.520;11.018;2022-10-31T17:53:31;60.63;;;25.83;;
31674;SDS011;18276;45.520;11.018;2022-10-31T17:56:01;45.38;;;24.45;;
31674;SDS011;18276;45.520;11.018;2022-10-31T17:58:29;49.63;;;25.70;;
31674;SDS011;18276;45.520;11.018;2022-10-31T18:00:57;53.22;;;23.73;;
31674;SDS011;18276;45.520;11.018;2022-10-31T18:03:26;47.38;;;24.77;;
31674;SDS011;18276;45.520;11.018;2022-10-31T18:05:54;45.63;;;23.80;;
31674;SDS011;18276;45.520;11.018;2022-10-31T18:08:23;38.67;;;20.55;;
31674;SDS011;18276;45.520;11.018;2022-10-31T18:10:54;41.47;;;19.95;;
31674;SDS011;18276;45.520;11.018;2022-10-31T18:13:22;49.83;;;21.45;;
31674;SDS011;18276;45.520;11.018;2022-10-31T18:15:48;41.53;;;20.88;;
31674;SDS011;18276;45.520;11.018;2022-10-31T18:18:16;38.55;;;18.58;;
31674;SDS011;18276;45.520;11.018;2022-10-31T18:20:43;37.80;;;17.67;;
31674;SDS011;18276;45.520;11.018;2022-10-31T18:23:10;34.22;;;17.13;;
31674;SDS011;18276;45.520;11.018;2022-10-31T18:25:38;28.30;;;13.75;;
31674;SDS011;18276;45.520;11.018;2022-10-31T18:28:06;34.95;;;13.60;;
31674;SDS011;18276;45.520;11.018;2022-10-31T18:30:33;33.83;;;13.13;;
31674;SDS011;18276;45.520;11.018;2022-10-31T18:33:03;32.58;;;13.52;;
31674;SDS011;18276;45.520;11.018;2022-10-31T18:35:30;34.25;;;14.07;;
31674;SDS011;18276;45.520;11.018;2022-10-31T18:37:57;33.33;;;14.20;;
31674;SDS011;18276;45.520;11.018;2022-10-31T18:40:28;25.50;;;13.48;;
31674;SDS011;18276;45.520;11.018;2022-10-31T18:42:55;26.98;;;13.15;;
31674;SDS011;18276;45.520;11.018;2022-10-31T18:45:22;30.67;;;14.90;;
31674;SDS011;18276;45.520;11.018;2022-10-31T18:50:33;28.33;;;10.60;;
31674;SDS011;18276;45.520;11.018;2022-10-31T18:53:04;18.20;;;9.82;;
31674;SDS011;18276;45.520;11.018;2022-10-31T18:55:31;23.52;;;10.45;;
31674;SDS011;18276;45.520;11.018;2022-10-31T18:57:58;25.73;;;10.70;;
31674;SDS011;18276;45.520;11.018;2022-10-31T19:00:25;19.52;;;11.18;;
31674;SDS011;18276;45.520;11.018;2022-10-31T19:02:52;22.17;;;10.00;;
31674;SDS011;18276;45.520;11.018;2022-10-31T19:05:22;28.90;;;10.18;;
31674;SDS011;18276;45.520;11.018;2022-10-31T19:07:49;16.60;;;8.32;;
31674;SDS011;18276;45.520;11.018;2022-10-31T19:10:16;18.08;;;8.52;;
31674;SDS011;18276;45.520;11.018;2022-10-31T19:12:43;21.17;;;9.73;;
31674;SDS011;18276;45.520;11.018;2022-10-31T19:15:10;20.10;;;9.07;;
31674;SDS011;18276;45.520;11.018;2022-10-31T19:17:36;21.55;;;9.00;;
31674;SDS011;18276;45.520;11.018;2022-10-31T19:20:03;19.60;;;8.48;;
31674;SDS011;18276;45.520;11.018;2022-10-31T19:22:31;25.75;;;10.10;;
31674;SDS011;18276;45.520;11.018;2022-10-31T19:24:58;19.60;;;9.45;;
31674;SDS011;18276;45.520;11.018;2022-10-31T19:27:25;24.75;;;9.05;;
31674;SDS011;18276;45.520;11.018;2022-10-31T19:29:53;19.58;;;8.73;;
31674;SDS011;18276;45.520;11.018;2022-10-31T19:32:20;24.38;;;10.25;;
31674;SDS011;18276;45.520;11.018;2022-10-31T19:34:47;20.80;;;9.15;;
31674;SDS011;18276;45.520;11.018;2022-10-31T19:37:14;22.98;;;9.25;;
31674;SDS011;18276;45.520;11.018;2022-10-31T19:39:41;17.42;;;8.00;;
31674;SDS011;18276;45.520;11.018;2022-10-31T19:42:10;17.50;;;7.43;;
31674;SDS011;18276;45.520;11.018;2022-10-31T19:44:37;22.80;;;9.13;;
31674;SDS011;18276;45.520;11.018;2022-10-31T19:47:04;22.67;;;8.13;;
31674;SDS011;18276;45.520;11.018;2022-10-31T19:49:31;18.95;;;7.40;;
31674;SDS011;18276;45.520;11.018;2022-10-31T19:51:58;18.02;;;7.53;;
31674;SDS011;18276;45.520;11.018;2022-10-31T19:54:26;14.00;;;6.82;;
31674;SDS011;18276;45.520;11.018;2022-10-31T19:56:53;16.48;;;7.15;;
31674;SDS011;18276;45.520;11.018;2022-10-31T19:59:21;19.55;;;7.57;;
31674;SDS011;18276;45.520;11.018;2022-10-31T20:01:48;16.27;;;6.28;;
31674;SDS011;18276;45.520;11.018;2022-10-31T20:04:15;19.73;;;6.68;;
31674;SDS011;18276;45.520;11.018;2022-10-31T20:06:42;13.60;;;6.53;;
31674;SDS011;18276;45.520;11.018;2022-10-31T20:09:10;17.73;;;6.18;;
31674;SDS011;18276;45.520;11.018;2022-10-31T20:11:41;19.58;;;7.47;;
31674;SDS011;18276;45.520;11.018;2022-10-31T20:14:10;13.85;;;6.10;;
31674;SDS011;18276;45.520;11.018;2022-10-31T20:16:39;17.08;;;6.60;;
31674;SDS011;18276;45.520;11.018;2022-10-31T20:19:06;15.48;;;6.45;;
31674;SDS011;18276;45.520;11.018;2022-10-31T20:21:37;17.70;;;7.50;;
31674;SDS011;18276;45.520;11.018;2022-10-31T20:24:07;22.67;;;7.15;;
31674;SDS011;18276;45.520;11.018;2022-10-31T20:26:35;14.52;;;6.25;;
31674;SDS011;18276;45.520;11.018;2022-10-31T20:29:05;17.48;;;5.85;;
31674;SDS011;18276;45.520;11.018;2022-10-31T20:31:33;13.90;;;6.45;;
31674;SDS011;18276;45.520;11.018;2022-10-31T20:34:01;23.73;;;7.07;;
31674;SDS011;18276;45.520;11.018;2022-10-31T20:36:28;17.17;;;5.65;;
31674;SDS011;18276;45.520;11.018;2022-10-31T20:38:56;25.13;;;5.88;;
31674;SDS011;18276;45.520;11.018;2022-10-31T20:41:24;16.25;;;5.57;;
31674;SDS011;18276;45.520;11.018;2022-10-31T20:43:51;16.95;;;5.60;;
31674;SDS011;18276;45.520;11.018;2022-10-31T20:46:19;18.15;;;6.28;;
31674;SDS011;18276;45.520;11.018;2022-10-31T20:48:49;15.05;;;6.53;;
31674;SDS011;18276;45.520;11.018;2022-10-31T20:51:18;18.52;;;6.68;;
31674;SDS011;18276;45.520;11.018;2022-10-31T20:53:50;14.85;;;5.85;;
31674;SDS011;18276;45.520;11.018;2022-10-31T20:56:20;13.43;;;5.20;;
31674;SDS011;18276;45.520;11.018;2022-10-31T20:58:48;8.30;;;4.75;;
31674;SDS011;18276;45.520;11.018;2022-10-31T21:01:17;14.20;;;4.43;;
31674;SDS011;18276;45.520;11.018;2022-10-31T21:03:49;18.13;;;5.57;;
31674;SDS011;18276;45.520;11.018;2022-10-31T21:06:17;13.73;;;5.18;;
31674;SDS011;18276;45.520;11.018;2022-10-31T21:08:45;14.68;;;4.68;;
31674;SDS011;18276;45.520;11.018;2022-10-31T21:11:13;14.27;;;4.60;;
31674;SDS011;18276;45.520;11.018;2022-10-31T21:13:43;14.07;;;5.28;;
31674;SDS011;18276;45.520;11.018;2022-10-31T21:16:12;15.63;;;4.78;;
31674;SDS011;18276;45.520;11.018;2022-10-31T21:18:42;13.23;;;5.20;;
31674;SDS011;18276;45.520;11.018;2022-10-31T21:21:14;11.73;;;4.70;;
31674;SDS011;18276;45.520;11.018;2022-10-31T21:23:51;17.50;;;4.63;;
31674;SDS011;18276;45.520;11.018;2022-10-31T21:26:23;11.43;;;4.60;;
31674;SDS011;18276;45.520;11.018;2022-10-31T21:28:53;14.27;;;4.65;;
31674;SDS011;18276;45.520;11.018;2022-10-31T21:31:23;12.43;;;4.25;;
31674;SDS011;18276;45.520;11.018;2022-10-31T21:33:51;9.70;;;3.40;;
31674;SDS011;18276;45.520;11.018;2022-10-31T21:36:18;11.82;;;4.03;;
31674;SDS011;18276;45.520;11.018;2022-10-31T21:38:51;13.63;;;4.65;;
31674;SDS011;18276;45.520;11.018;2022-10-31T21:41:19;10.50;;;4.25;;
31674;SDS011;18276;45.520;11.018;2022-10-31T21:43:48;10.68;;;3.88;;
31674;SDS011;18276;45.520;11.018;2022-10-31T21:46:18;14.90;;;4.43;;
31674;SDS011;18276;45.520;11.018;2022-10-31T21:48:47;10.57;;;4.60;;
31674;SDS011;18276;45.520;11.018;2022-10-31T21:51:15;10.98;;;4.03;;
31674;SDS011;18276;45.520;11.018;2022-10-31T21:53:45;8.00;;;3.97;;
31674;SDS011;18276;45.520;11.018;2022-10-31T21:56:31;15.63;;;6.15;;
31674;SDS011;18276;45.520;11.018;2022-10-31T21:58:59;12.48;;;5.22;;